createdAt,value
2022-07-25T00:01:46.925Z,24.02
2022-07-25T00:04:14.856Z,24.03
2022-07-25T00:06:42.929Z,24.06
2022-07-25T00:09:10.130Z,24.01
2022-07-25T00:11:36.974Z,24.01
2022-07-25T00:14:04.931Z,24.00
2022-07-25T00:16:32.417Z,24.00
2022-07-25T00:18:59.354Z,23.96
2022-07-25T00:21:26.188Z,23.91
2022-07-25T00:23:53.109Z,23.85
2022-07-25T00:26:20.105Z,23.80
2022-07-25T00:28:46.794Z,23.73
2022-07-25T00:31:13.844Z,23.72
2022-07-25T00:33:41.189Z,23.71
2022-07-25T00:36:09.003Z,23.67
2022-07-25T00:38:35.768Z,23.68
2022-07-25T00:41:04.251Z,23.69
2022-07-25T00:43:31.157Z,23.72
2022-07-25T00:45:59.276Z,23.78
2022-07-25T00:48:28.572Z,23.82
2022-07-25T00:50:58.901Z,23.79
2022-07-25T00:53:25.705Z,23.70
2022-07-25T00:55:52.903Z,23.58
2022-07-25T00:58:19.678Z,23.49
2022-07-25T01:00:47.465Z,23.55
2022-07-25T01:03:14.369Z,23.62
2022-07-25T01:05:41.493Z,23.68
2022-07-25T01:08:09.258Z,23.75
2022-07-25T01:10:36.704Z,23.75
2022-07-25T01:13:07.335Z,23.70
2022-07-25T01:15:34.287Z,23.61
2022-07-25T01:18:01.297Z,23.62
2022-07-25T01:20:31.536Z,23.60
2022-07-25T01:22:59.559Z,23.55
2022-07-25T01:25:27.785Z,23.53
2022-07-25T01:27:56.149Z,23.53
2022-07-25T01:30:25.109Z,23.51
2022-07-25T01:32:55.537Z,23.55
2022-07-25T01:35:22.607Z,23.62
2022-07-25T01:37:49.346Z,23.62
2022-07-25T01:40:16.396Z,23.62
2022-07-25T01:42:44.007Z,23.64
2022-07-25T01:45:12.618Z,23.68
2022-07-25T01:47:39.830Z,23.69
2022-07-25T01:50:07.634Z,23.69
2022-07-25T01:52:34.531Z,23.64
2022-07-25T01:55:01.386Z,23.52
2022-07-25T01:57:31.008Z,23.45
2022-07-25T01:59:58.798Z,23.41
2022-07-25T02:02:25.852Z,23.43
2022-07-25T02:04:53.416Z,23.43
2022-07-25T02:07:20.434Z,23.40
2022-07-25T02:09:56.344Z,23.36
2022-07-25T02:12:27.282Z,23.33
2022-07-25T02:14:54.212Z,23.28
2022-07-25T02:17:21.058Z,23.23
2022-07-25T02:19:47.767Z,23.20
2022-07-25T02:22:14.537Z,23.16
2022-07-25T02:24:41.562Z,23.17
2022-07-25T02:27:08.348Z,23.18
2022-07-25T02:29:49.288Z,23.19
2022-07-25T02:32:21.378Z,23.16
2022-07-25T02:34:49.162Z,23.13
2022-07-25T02:37:29.802Z,23.16
2022-07-25T02:40:00.285Z,23.20
2022-07-25T02:42:27.238Z,23.17
2022-07-25T02:44:53.964Z,23.18
2022-07-25T02:47:20.646Z,23.15
2022-07-25T02:49:47.391Z,23.11
2022-07-25T02:52:14.077Z,23.11
2022-07-25T02:54:40.804Z,23.09
2022-07-25T02:57:07.599Z,23.07
2022-07-25T02:59:35.208Z,23.03
2022-07-25T03:02:02.129Z,22.96
2022-07-25T03:04:28.940Z,22.98
2022-07-25T03:06:55.702Z,22.99
2022-07-25T03:09:22.518Z,22.96
2022-07-25T03:11:50.544Z,22.91
2022-07-25T03:14:17.423Z,22.88
2022-07-25T03:16:44.130Z,22.83
2022-07-25T03:19:12.867Z,22.82
2022-07-25T03:21:39.808Z,22.82
2022-07-25T03:24:07.173Z,22.84
2022-07-25T03:26:34.058Z,22.87
2022-07-25T03:29:00.837Z,22.91
2022-07-25T03:31:28.678Z,22.89
2022-07-25T03:33:55.503Z,22.85
2022-07-25T03:36:22.372Z,22.85
2022-07-25T03:38:49.136Z,22.89
2022-07-25T03:41:15.784Z,22.90
2022-07-25T03:43:42.500Z,22.94
2022-07-25T03:46:09.195Z,22.94
2022-07-25T03:48:35.976Z,22.94
2022-07-25T03:51:06.837Z,22.95
2022-07-25T03:53:54.727Z,22.92
2022-07-25T03:56:21.517Z,22.95
2022-07-25T03:58:48.317Z,22.95
2022-07-25T04:01:15.195Z,22.93
2022-07-25T04:03:41.947Z,22.88
2022-07-25T04:06:11.588Z,22.86
2022-07-25T04:08:38.778Z,22.86
2022-07-25T04:11:05.593Z,22.88
2022-07-25T04:13:32.392Z,22.92
2022-07-25T04:15:59.132Z,22.90
2022-07-25T04:18:28.698Z,22.95
2022-07-25T04:20:55.641Z,23.01
2022-07-25T04:23:22.451Z,23.07
2022-07-25T04:25:49.210Z,23.13
2022-07-25T04:28:15.861Z,23.14
2022-07-25T04:30:45.474Z,23.21
2022-07-25T04:33:13.386Z,23.25
2022-07-25T04:35:40.406Z,23.30
2022-07-25T04:38:11.891Z,23.37
2022-07-25T04:40:39.031Z,23.42
2022-07-25T04:43:06.114Z,23.39
2022-07-25T04:45:33.350Z,23.38
2022-07-25T04:48:00.595Z,23.38
2022-07-25T04:50:28.280Z,23.41
2022-07-25T04:52:54.972Z,23.41
2022-07-25T04:55:21.921Z,23.48
2022-07-25T04:57:48.726Z,23.53
2022-07-25T05:00:18.655Z,23.60
2022-07-25T05:02:47.123Z,23.65
2022-07-25T05:05:20.878Z,23.69
2022-07-25T05:07:48.790Z,23.70
2022-07-25T05:10:15.536Z,23.72
2022-07-25T05:12:42.391Z,23.78
2022-07-25T05:15:09.698Z,23.86
2022-07-25T05:17:36.836Z,23.88
2022-07-25T05:20:04.126Z,23.92
2022-07-25T05:22:31.105Z,23.96
2022-07-25T05:24:58.329Z,24.03
2022-07-25T05:27:25.389Z,24.08
2022-07-25T05:29:52.220Z,24.15
2022-07-25T05:32:26.359Z,24.24
2022-07-25T05:34:58.117Z,24.30
2022-07-25T05:37:25.584Z,24.38
2022-07-25T05:39:52.389Z,24.41
2022-07-25T05:42:19.790Z,24.49
2022-07-25T05:44:46.575Z,24.56
2022-07-25T05:47:13.683Z,24.63
2022-07-25T05:49:41.069Z,24.69
2022-07-25T05:52:12.860Z,24.78
2022-07-25T05:54:40.530Z,24.84
2022-07-25T05:57:07.383Z,24.91
2022-07-25T05:59:34.145Z,24.99
2022-07-25T06:02:04.007Z,25.04
2022-07-25T06:04:30.967Z,25.07
2022-07-25T06:06:58.063Z,25.13
2022-07-25T06:09:26.482Z,25.20
2022-07-25T06:12:00.494Z,25.27
2022-07-25T06:14:29.220Z,25.36
2022-07-25T06:16:56.665Z,25.43
2022-07-25T06:19:23.602Z,25.53
2022-07-25T06:21:50.712Z,25.62
2022-07-25T06:24:17.687Z,25.76
2022-07-25T06:26:45.803Z,25.86
2022-07-25T06:29:13.173Z,26.11
2022-07-25T06:31:40.151Z,27.83
2022-07-25T06:34:07.448Z,30.26
2022-07-25T06:36:34.812Z,31.45
2022-07-25T06:39:02.660Z,31.80
2022-07-25T06:41:29.419Z,32.57
2022-07-25T06:43:56.249Z,32.37
2022-07-25T06:46:23.197Z,32.05
2022-07-25T06:48:51.466Z,31.91
2022-07-25T06:51:18.231Z,32.96
2022-07-25T06:53:45.077Z,34.99
2022-07-25T06:56:17.216Z,36.62
2022-07-25T06:58:44.262Z,37.81
2022-07-25T07:01:11.249Z,38.91
2022-07-25T07:03:39.072Z,39.91
2022-07-25T07:06:06.924Z,40.75
2022-07-25T07:08:34.482Z,41.26
2022-07-25T07:11:01.591Z,41.82
2022-07-25T07:13:29.975Z,42.46
2022-07-25T07:15:58.134Z,42.84
2022-07-25T07:18:25.477Z,43.13
2022-07-25T07:20:52.414Z,42.50
2022-07-25T07:23:19.633Z,41.81
2022-07-25T07:25:47.298Z,42.52
2022-07-25T07:28:14.258Z,42.62
2022-07-25T07:33:27.843Z,42.80
2022-07-25T07:35:57.057Z,43.09
2022-07-25T07:38:25.024Z,43.91
2022-07-25T07:41:07.901Z,43.97
2022-07-25T07:43:34.930Z,44.58
2022-07-25T07:46:02.001Z,45.43
2022-07-25T07:48:32.721Z,45.44
2022-07-25T07:51:01.745Z,44.63
2022-07-25T07:53:47.931Z,44.20
2022-07-25T07:56:15.956Z,43.96
2022-07-25T07:58:43.641Z,44.96
2022-07-25T08:01:10.874Z,44.92
2022-07-25T08:03:37.933Z,44.64
2022-07-25T08:06:04.975Z,44.13
2022-07-25T08:08:32.358Z,44.01
2022-07-25T08:11:00.378Z,43.86
2022-07-25T08:13:30.485Z,43.61
2022-07-25T08:16:00.034Z,43.66
2022-07-25T08:18:32.721Z,44.02
2022-07-25T08:21:03.046Z,44.64
2022-07-25T08:23:32.011Z,44.08
2022-07-25T08:26:00.732Z,44.44
2022-07-25T08:28:27.439Z,44.08
2022-07-25T08:30:55.218Z,43.89
2022-07-25T08:33:22.338Z,43.46
2022-07-25T08:35:56.960Z,43.52
2022-07-25T08:38:25.972Z,43.22
2022-07-25T08:40:58.127Z,43.51
2022-07-25T08:43:43.425Z,43.11
2022-07-25T08:46:14.239Z,42.97
2022-07-25T08:48:41.001Z,42.23
2022-07-25T08:51:08.620Z,41.76
2022-07-25T08:53:37.065Z,41.90
2022-07-25T10:51:59.510Z,36.26
2022-07-25T10:54:26.407Z,36.22
2022-07-25T10:56:57.958Z,36.50
2022-07-25T10:59:29.136Z,36.79
2022-07-25T11:01:56.093Z,36.84
2022-07-25T11:04:23.067Z,37.06
2022-07-25T11:06:49.915Z,37.53
2022-07-25T11:09:26.962Z,37.68
2022-07-25T11:11:57.342Z,37.56
2022-07-25T11:14:25.785Z,37.73
2022-07-25T11:16:55.112Z,37.96
2022-07-25T11:19:29.498Z,37.98
2022-07-25T11:21:58.796Z,38.01
2022-07-25T11:24:43.044Z,37.69
2022-07-25T11:27:12.968Z,37.82
2022-07-25T11:29:41.169Z,37.50
2022-07-25T11:32:12.001Z,37.52
2022-07-25T11:34:43.017Z,37.81
2022-07-25T11:37:11.977Z,38.07
2022-07-25T11:39:41.613Z,38.45
2022-07-25T11:42:11.868Z,38.56
2022-07-25T11:44:47.564Z,38.46
2022-07-25T11:47:30.940Z,38.66
2022-07-25T11:50:01.425Z,38.47
2022-07-25T11:52:34.773Z,38.56
2022-07-25T11:55:10.025Z,38.40
2022-07-25T11:57:46.643Z,38.58
2022-07-25T12:00:22.244Z,38.48
2022-07-25T12:02:50.100Z,38.59
2022-07-25T12:05:21.681Z,38.81
2022-07-25T12:07:53.313Z,38.64
2022-07-25T12:10:36.982Z,38.64
2022-07-25T12:13:06.328Z,38.57
2022-07-25T12:15:39.070Z,38.32
2022-07-25T12:18:07.534Z,38.23
2022-07-25T12:20:43.556Z,38.33
2022-07-25T12:23:12.540Z,38.37
2022-07-25T12:25:42.835Z,38.34
2022-07-25T12:28:11.010Z,38.36
2022-07-25T12:30:39.543Z,38.34
2022-07-25T12:33:06.721Z,38.54
2022-07-25T12:35:33.983Z,38.81
2022-07-25T12:38:00.678Z,39.05
2022-07-25T12:40:27.542Z,39.06
2022-07-25T12:42:54.999Z,39.09
2022-07-25T12:45:23.233Z,39.00
2022-07-25T12:47:50.022Z,38.70
2022-07-25T12:50:18.579Z,38.51
2022-07-25T12:52:45.832Z,38.43
2022-07-25T12:55:19.657Z,38.50
2022-07-25T12:57:46.901Z,38.42
2022-07-25T13:00:16.618Z,38.45
2022-07-25T13:02:43.555Z,38.45
2022-07-25T13:05:10.556Z,38.31
2022-07-25T13:07:37.990Z,38.05
2022-07-25T13:10:06.446Z,37.82
2022-07-25T13:12:33.305Z,37.61
2022-07-25T13:15:00.284Z,37.40
2022-07-25T13:17:28.072Z,37.47
2022-07-25T13:19:56.500Z,37.44
2022-07-25T13:22:24.262Z,37.49
2022-07-25T13:24:51.521Z,37.62
2022-07-25T13:27:20.134Z,37.64
2022-07-25T13:29:47.266Z,37.62
2022-07-25T13:32:14.045Z,37.37
2022-07-25T13:34:40.859Z,37.19
2022-07-25T13:37:07.552Z,36.92
2022-07-25T13:39:35.875Z,36.84
2022-07-25T13:42:03.189Z,36.97
2022-07-25T13:44:30.130Z,37.08
2022-07-25T13:46:58.717Z,37.05
2022-07-25T13:49:25.961Z,36.92
2022-07-25T13:51:52.816Z,36.98
2022-07-25T13:54:19.613Z,36.95
2022-07-25T13:56:47.603Z,36.85
2022-07-25T13:59:20.487Z,36.72
2022-07-25T14:01:48.467Z,36.91
2022-07-25T14:04:15.237Z,36.94
2022-07-25T14:06:46.588Z,36.72
2022-07-25T14:09:13.355Z,36.51
2022-07-25T14:11:40.136Z,36.47
2022-07-25T14:14:06.773Z,36.53
2022-07-25T14:16:34.388Z,36.62
2022-07-25T14:19:02.283Z,36.71
2022-07-25T14:21:29.951Z,36.76
2022-07-25T14:23:56.598Z,36.61
2022-07-25T14:26:23.376Z,36.45
2022-07-25T14:28:50.061Z,36.52
2022-07-25T14:31:17.535Z,36.56
2022-07-25T14:33:44.262Z,36.49
2022-07-25T14:36:11.109Z,36.43
2022-07-25T14:38:37.879Z,36.39
2022-07-25T14:41:10.501Z,36.35
2022-07-25T14:43:40.234Z,36.19
2022-07-25T14:46:08.143Z,36.06
2022-07-25T14:48:39.079Z,35.76
2022-07-25T14:51:14.337Z,35.58
2022-07-25T14:53:42.702Z,35.43
2022-07-25T14:56:09.519Z,35.37
2022-07-25T14:58:36.309Z,35.36
2022-07-25T15:01:03.295Z,35.38
2022-07-25T15:03:30.161Z,35.55
2022-07-25T15:06:09.759Z,35.53
2022-07-25T15:08:58.418Z,35.42
2022-07-25T15:11:32.577Z,35.13
2022-07-25T15:13:59.520Z,34.97
2022-07-25T15:16:26.361Z,34.75
2022-07-25T15:19:15.004Z,34.68
2022-07-25T15:21:40.348Z,34.75
2022-07-25T15:24:07.531Z,34.70
2022-07-25T15:26:34.344Z,34.83
2022-07-25T15:29:01.266Z,34.97
2022-07-25T15:31:28.323Z,35.11
2022-07-25T15:33:55.080Z,35.16
2022-07-25T15:36:24.562Z,35.10
2022-07-25T15:38:55.671Z,35.05
2022-07-25T15:41:22.562Z,35.07
2022-07-25T15:43:51.304Z,35.02
2022-07-25T15:46:18.141Z,34.95
2022-07-25T15:48:45.650Z,35.05
2022-07-25T15:51:22.236Z,35.08
2022-07-25T15:53:49.265Z,35.00
2022-07-25T15:56:16.432Z,34.73
2022-07-25T15:58:44.365Z,34.49
2022-07-25T16:01:11.369Z,34.41
2022-07-25T16:03:38.412Z,34.33
2022-07-25T16:06:05.355Z,34.28
2022-07-25T16:08:32.422Z,34.25
2022-07-25T16:11:00.180Z,34.17
2022-07-25T16:13:27.284Z,34.09
2022-07-25T16:15:54.136Z,34.05
2022-07-25T16:18:20.951Z,33.80
2022-07-25T16:20:47.886Z,33.65
2022-07-25T16:23:14.621Z,33.59
2022-07-25T16:25:43.760Z,33.55
2022-07-25T16:28:10.564Z,33.51
2022-07-25T16:30:37.380Z,33.46
2022-07-25T16:33:04.376Z,33.37
2022-07-25T16:35:32.077Z,33.29
2022-07-25T16:37:58.801Z,33.15
2022-07-25T16:40:30.224Z,33.05
2022-07-25T16:42:59.371Z,33.04
2022-07-25T16:45:26.600Z,33.05
2022-07-25T16:47:53.498Z,33.07
2022-07-25T16:50:20.766Z,33.05
2022-07-25T16:52:47.543Z,33.05
2022-07-25T16:55:14.450Z,33.05
2022-07-25T16:57:41.148Z,33.19
2022-07-25T17:00:09.554Z,33.37
2022-07-25T17:02:36.245Z,33.49
2022-07-25T17:05:03.915Z,33.48
2022-07-25T17:07:31.619Z,33.49
2022-07-25T17:09:59.523Z,33.37
2022-07-25T17:12:26.478Z,33.21
2022-07-25T17:14:53.905Z,33.10
2022-07-25T17:17:20.741Z,33.01
2022-07-25T17:19:47.590Z,32.85
2022-07-25T17:22:14.361Z,32.79
2022-07-25T17:24:41.801Z,32.71
2022-07-25T17:27:09.425Z,32.66
2022-07-25T17:29:37.452Z,32.51
2022-07-25T17:32:06.131Z,32.47
2022-07-25T17:34:33.151Z,32.44
2022-07-25T17:37:03.026Z,32.36
2022-07-25T17:39:33.543Z,32.32
2022-07-25T17:42:01.135Z,32.24
2022-07-25T17:44:28.670Z,32.10
2022-07-25T17:46:55.795Z,32.00
2022-07-25T17:49:22.715Z,31.95
2022-07-25T17:51:50.342Z,31.91
2022-07-25T17:54:17.078Z,31.75
2022-07-25T17:56:45.476Z,31.36
2022-07-25T17:59:12.390Z,31.02
2022-07-25T18:01:40.039Z,30.86
2022-07-25T18:04:07.341Z,30.79
2022-07-25T18:06:34.637Z,30.79
2022-07-25T18:09:01.489Z,30.71
2022-07-25T18:11:28.266Z,30.80
2022-07-25T18:13:55.024Z,30.86
2022-07-25T18:16:22.794Z,30.88
2022-07-25T18:18:49.635Z,30.85
2022-07-25T18:21:16.514Z,30.42
2022-07-25T18:23:43.303Z,30.25
2022-07-25T18:26:10.212Z,30.27
2022-07-25T18:28:37.058Z,30.36
2022-07-25T18:31:04.623Z,30.14
2022-07-25T18:33:32.302Z,29.91
2022-07-25T18:36:00.905Z,29.88
2022-07-25T18:38:31.458Z,29.90
2022-07-25T18:41:19.297Z,29.91
2022-07-25T18:43:45.741Z,29.81
2022-07-25T18:46:15.020Z,29.82
2022-07-25T18:48:43.445Z,29.73
2022-07-25T18:51:11.044Z,29.50
2022-07-25T18:53:38.127Z,29.36
2022-07-25T18:56:06.246Z,29.38
2022-07-25T18:58:33.278Z,29.39
2022-07-25T19:01:02.835Z,29.41
2022-07-25T19:03:31.666Z,29.30
2022-07-25T19:06:03.087Z,29.29
2022-07-25T19:08:30.777Z,29.38
2022-07-25T19:10:57.498Z,29.42
2022-07-25T19:13:47.655Z,29.32
2022-07-25T19:16:11.982Z,29.05
2022-07-25T19:18:39.642Z,29.07
2022-07-25T19:21:06.917Z,29.12
2022-07-25T19:23:33.774Z,29.14
2022-07-25T19:26:02.273Z,29.15
2022-07-25T19:28:29.195Z,29.14
2022-07-25T19:30:57.167Z,29.13
2022-07-25T19:33:24.465Z,29.09
2022-07-25T19:35:52.482Z,29.08
2022-07-25T19:38:20.236Z,28.95
2022-07-25T19:40:47.919Z,28.88
2022-07-25T19:43:17.043Z,28.74
2022-07-25T19:45:43.907Z,28.68
2022-07-25T19:48:11.705Z,28.66
2022-07-25T19:50:38.484Z,28.64
2022-07-25T19:53:05.204Z,28.59
2022-07-25T19:55:31.929Z,28.56
2022-07-25T19:57:58.588Z,28.55
2022-07-25T20:00:25.317Z,28.47
2022-07-25T20:06:10.908Z,28.36
2022-07-25T20:08:39.536Z,28.25
2022-07-25T20:11:07.773Z,28.28
2022-07-25T20:13:35.882Z,28.32
2022-07-25T20:16:04.038Z,28.34
2022-07-25T20:18:30.896Z,28.35
2022-07-25T20:20:58.266Z,28.37
2022-07-25T20:23:25.197Z,28.38
2022-07-25T20:25:52.123Z,28.35
2022-07-25T20:28:18.924Z,28.31
2022-07-25T20:30:45.929Z,28.29
2022-07-25T20:33:12.863Z,28.32
2022-07-25T20:35:40.037Z,28.35
2022-07-25T20:38:09.800Z,28.35
2022-07-25T20:40:39.535Z,28.37
2022-07-25T20:43:09.231Z,28.38
2022-07-25T20:45:36.815Z,28.26
2022-07-25T20:48:04.882Z,28.13
2022-07-25T20:50:32.052Z,28.08
2022-07-25T20:52:58.887Z,27.95
2022-07-25T20:55:28.480Z,27.89
2022-07-25T20:57:55.338Z,27.83
2022-07-25T21:00:22.952Z,27.55
2022-07-25T21:02:49.775Z,27.12
2022-07-25T21:05:16.479Z,26.97
2022-07-25T21:07:43.672Z,26.93
2022-07-25T21:10:11.094Z,26.95
2022-07-25T21:12:38.710Z,27.10
2022-07-25T21:15:06.933Z,27.27
2022-07-25T21:17:34.411Z,27.35
2022-07-25T21:20:01.215Z,27.35
2022-07-25T21:22:27.972Z,27.22
2022-07-25T21:24:54.766Z,26.90
2022-07-25T21:27:21.602Z,26.59
2022-07-25T21:29:48.351Z,26.56
2022-07-25T21:32:15.993Z,26.73
2022-07-25T21:34:47.386Z,26.80
2022-07-25T21:37:14.322Z,26.84
2022-07-25T21:39:41.185Z,26.71
2022-07-25T21:42:10.038Z,26.58
2022-07-25T21:44:39.857Z,26.63
2022-07-25T21:47:07.074Z,26.70
2022-07-25T21:49:52.654Z,26.69
2022-07-25T21:52:19.718Z,26.61
2022-07-25T21:54:57.152Z,26.53
2022-07-25T21:57:23.813Z,26.51
2022-07-25T21:59:50.564Z,26.43
2022-07-25T22:02:18.292Z,26.36
2022-07-25T22:04:45.147Z,26.18
2022-07-25T22:07:11.893Z,26.07
2022-07-25T22:09:38.731Z,25.89
2022-07-25T22:12:05.822Z,25.77
2022-07-25T22:14:32.717Z,25.76
2022-07-25T22:16:59.533Z,25.56
2022-07-25T22:19:26.280Z,25.52
2022-07-25T22:21:53.123Z,25.42
2022-07-25T22:24:19.840Z,25.33
2022-07-25T22:26:46.736Z,25.38
2022-07-25T22:29:13.427Z,25.55
2022-07-25T22:31:40.473Z,25.54
2022-07-25T22:34:07.447Z,25.24
2022-07-25T22:36:34.182Z,25.15
2022-07-25T22:39:00.881Z,25.19
2022-07-25T22:41:27.853Z,25.08
2022-07-25T22:43:58.885Z,25.04
2022-07-25T22:46:30.171Z,24.91
2022-07-25T22:48:58.296Z,25.03
2022-07-25T22:51:25.539Z,24.91
2022-07-25T22:53:52.724Z,24.86
2022-07-25T22:56:20.124Z,24.80
2022-07-25T22:58:49.227Z,24.78
2022-07-25T23:01:19.948Z,24.93
2022-07-25T23:03:49.956Z,24.94
2022-07-25T23:06:18.641Z,24.86
2022-07-25T23:08:45.542Z,24.78
2022-07-25T23:11:12.488Z,24.76
2022-07-25T23:13:39.193Z,24.72
2022-07-25T23:16:06.359Z,24.76
2022-07-25T23:18:37.633Z,24.84
2022-07-25T23:21:04.487Z,24.83
2022-07-25T23:23:31.372Z,24.86
2022-07-25T23:25:58.095Z,24.73
2022-07-25T23:28:24.757Z,24.67
2022-07-25T23:30:51.536Z,24.61
2022-07-25T23:33:18.285Z,24.44
2022-07-25T23:35:52.541Z,24.31
2022-07-25T23:38:19.344Z,24.17
2022-07-25T23:40:46.040Z,24.24
2022-07-25T23:43:13.678Z,24.25
2022-07-25T23:45:43.737Z,24.16
2022-07-25T23:48:13.195Z,23.87
2022-07-25T23:50:39.869Z,23.92
2022-07-25T23:53:06.728Z,23.99
2022-07-25T23:55:35.203Z,24.08
2022-07-25T23:58:01.997Z,24.08
